Latest Coastal Weather Observations for Portland Airport

IDS60701

Issued at 7:41 am CST Thursday 30 July 2015 (issued every 10 minutes, with the page automatically refreshed every 10 minutes)

About coastal observations | Map of coastal stations | Coastal observations for SA | Marine services | Other Formats
Station Details ID: 090171 Name: CASHMORE AIRPORT Lat: -38.31 Lon: 141.47 Height: 80.9 m
Data from the previous 72 hours. | See also: Recent months at Portland Airport
Date/Time
CST
Temp

°C
Wind Pressure Rain
since 9am
mm
Weather Cloud Vis
km
Sea
Height
m
Swell
Dir
 
Speed
knots
Gust
knots
hPa Trend Height
m
Period
s
Dir
30/07:30am 8.5 NNW 15 21 1015.9 - 0.0 - Partly cloudy 10 - - - -
30/07:00am 8.1 NNW 15 22 1015.9 - 0.0 - Partly cloudy 10 - - - -
30/06:30am 8.7 NNW 15 22 1015.7 - 0.0 - Partly cloudy 10 - - - -
30/06:17am 8.7 NNW 15 25 1015.8 - 0.0 - Partly cloudy 10 - - - -
30/06:00am 8.7 NNW 15 24 1015.9 - 0.0 - Cloudy 10 - - - -
30/05:30am 8.7 NNW 15 24 1016.2 - 0.0 - Mostly cloudy 10 - - - -
30/05:00am 8.5 NNW 16 24 1016.8 - 0.0 - Cloudy 10 - - - -
30/04:39am 8.6 N 17 27 1016.9 - 0.0 - Cloudy 10 - - - -
30/04:30am 8.4 NNW 17 26 1017.3 - 0.0 - Cloudy 10 - - - -
30/04:00am 8.4 NNW 16 23 1017.7 - 0.0 - Cloudy 10 - - - -
30/03:30am 8.2 NNW 17 25 1018.1 - 0.0 - Cloudy 10 - - - -
30/03:00am 8.1 N 14 22 1018.6 - 0.0 - Cloudy 10 - - - -
30/02:30am 7.8 N 14 23 1019.3 - 0.0 - Mostly clear 10 - - - -
30/02:00am 7.9 N 13 19 1019.8 - 0.0 - - 10 - - - -
30/01:30am 7.7 NNW 13 18 1020.2 - 0.0 - - 10 - - - -
30/01:00am 8.0 N 12 19 1020.6 - 0.0 - - 10 - - - -
30/12:30am 7.6 N 10 15 1021.2 - 0.0 - Partly cloudy 10 - - - -
30/12:00am 7.8 N 11 15 1021.8 - 0.0 - Partly cloudy 10 - - - -
 
Date/Time
CST
Temp

°C
Wind Pressure Rain
since 9am
mm
Weather Cloud Vis
km
Sea
Height
m
Swell
Dir
 
Speed
knots
Gust
knots
hPa Trend Height
m
Period
s
Dir
29/11:30pm 8.0 N 11 15 1022.3 - 0.0 - Mostly clear 10 - - - -
29/11:00pm 8.4 N 11 16 1023.0 - 0.0 - - 10 - - - -
29/10:30pm 8.5 N 10 14 1023.3 - 0.0 - - 10 - - - -
29/10:00pm 8.2 N 10 14 1023.3 - 0.0 - - 10 - - - -
29/09:30pm 8.2 N 10 14 1023.8 - 0.0 - - 10 - - - -
29/09:00pm 8.6 N 10 13 1024.1 - 0.0 - - 10 - - - -
29/08:30pm 8.7 N 9 13 1024.2 - 0.0 - Cloudy 10 - - - -
29/08:00pm 8.7 N 9 12 1024.3 - 0.0 - - 10 - - - -
29/07:30pm 8.8 N 9 14 1024.4 - 0.0 - - 10 - - - -
29/07:00pm 9.0 N 10 14 1024.6 - 0.0 - - 10 - - - -
29/06:30pm 9.1 N 9 13 1024.8 - 0.0 - - 10 - - - -
29/06:00pm 9.4 N 10 13 1024.6 - 0.0 - - 10 - - - -
29/05:30pm 9.6 N 10 14 1024.6 - 0.0 - Cloudy 10 - - - -
29/05:00pm 10.0 NNW 11 16 1024.8 - 0.0 - - 10 - - - -
29/04:30pm 10.3 NNW 10 15 1025.1 - 0.0 - Partly cloudy 10 - - - -
29/04:00pm 10.6 NNW 10 15 1025.3 - 0.0 - Partly cloudy 10 - - - -
29/03:30pm 11.2 NNW 13 20 1025.6 - 0.0 - Partly cloudy 10 - - - -
29/03:00pm 11.4 NNW 13 20 1025.7 - 0.0 - - 10 - - - -
29/02:30pm 11.8 NNW 12 17 1025.9 - 0.0 - Cloudy 10 - - - -
29/02:00pm 11.2 NNW 11 16 1026.3 - 0.0 - Partly cloudy 10 - - - -
29/01:30pm 11.1 NNW 11 19 1026.7 - 0.0 - - 10 - - - -
29/01:00pm 11.1 NNW 12 19 1027.1 - 0.0 - Partly cloudy 10 - - - -
29/12:30pm 11.1 NNW 13 20 1028.2 - 0.0 - Partly cloudy 10 - - - -
29/12:00pm 10.8 NNW 11 16 1028.9 - 0.0 - Cloudy 10 - - - -
29/11:30am 10.6 NNW 9 12 1029.7 - 0.0 - Mostly cloudy 10 - - - -
29/11:00am 10.1 NNW 8 11 1030.1 - 0.0 - Cloudy 10 - - - -
29/10:30am 9.7 NNW 11 15 1030.5 - 0.0 - Cloudy 10 - - - -
29/10:00am 9.6 NNW 8 11 1030.8 - 0.0 - Partly cloudy 10 - - - -
29/09:30am 9.0 N 8 11 1031.1 - 0.0 - Partly cloudy 10 - - - -
29/09:00am 7.6 N 7 9 1031.0 - 0.0 - - 10 - - - -
29/08:30am 7.5 N 6 7 1030.9 - 4.2 - Partly cloudy 10 - - - -
29/08:00am 7.6 N 9 12 1031.0 - 4.2 - Cloudy 10 - - - -
29/07:30am 7.3 N 9 13 1031.2 - 4.2 - Cloudy 10 - - - -
29/07:00am 7.3 N 8 11 1031.1 - 4.2 - Partly cloudy 10 - - - -
29/06:30am 7.3 N 7 10 1031.3 - 4.2 - Cloudy 10 - - - -
29/06:00am 7.2 N 8 11 1031.0 - 4.2 - Cloudy 10 - - - -
29/05:30am 6.9 N 7 10 1030.9 - 4.2 - Cloudy 10 - - - -
29/05:00am 6.0 N 6 8 1030.7 - 4.2 - Partly cloudy 10 - - - -
29/04:30am 6.2 N 7 9 1030.7 - 4.2 - Partly cloudy 10 - - - -
29/04:00am 6.6 N 7 10 1031.0 - 4.2 - Partly cloudy 10 - - - -
29/03:30am 6.6 N 6 9 1031.3 - 4.2 - Partly cloudy 10 - - - -
29/03:00am 6.3 N 5 7 1031.5 - 4.2 - Partly cloudy 10 - - - -
29/02:30am 6.6 N 7 9 1031.5 - 4.2 - Cloudy 10 - - - -
29/02:00am 6.5 NNW 6 8 1031.9 - 4.2 - - 10 - - - -
29/01:30am 6.4 N 7 8 1031.8 - 4.2 - - 10 - - - -
29/01:00am 6.3 NNW 7 8 1032.2 - 4.0 - - 10 - - - -
29/12:30am 6.0 N 6 7 1032.4 - 4.0 - - 10 - - - -
29/12:00am 6.1 N 6 7 1032.7 - 4.0 - - 10 - - - -
 
Date/Time
CST
Temp

°C
Wind Pressure Rain
since 9am
mm
Weather Cloud Vis
km
Sea
Height
m
Swell
Dir
 
Speed
knots
Gust
knots
hPa Trend Height
m
Period
s
Dir
28/11:30pm 6.9 NNW 7 9 1032.9 - 4.0 - Partly cloudy 10 - - - -
28/11:00pm 7.7 NNW 7 9 1033.1 - 4.0 - Partly cloudy 10 - - - -
28/10:30pm 7.1 N 6 7 1032.9 - 4.0 - Partly cloudy 10 - - - -
28/10:00pm 6.6 N 5 6 1033.1 - 4.0 - - 10 - - - -
28/09:30pm 7.1 NNW 6 7 1033.5 - 4.0 - - 10 - - - -
28/09:00pm 7.8 NNW 6 8 1033.6 - 4.0 - Partly cloudy 10 - - - -
28/08:30pm 7.9 NNW 5 7 1033.8 - 4.0 - Partly cloudy 10 - - - -
28/08:00pm 8.6 NW 6 8 1033.8 - 4.0 - Partly cloudy 10 - - - -
28/07:30pm 7.4 NNW 5 6 1033.9 - 4.0 - Partly cloudy 10 - - - -
28/07:00pm 7.3 NNW 4 6 1033.9 - 4.0 - Partly cloudy 10 - - - -
28/06:30pm 8.2 NW 5 7 1033.8 - 4.0 - - 10 - - - -
28/06:00pm 8.5 NW 5 7 1033.7 - 4.0 - Partly cloudy 10 - - - -
28/05:30pm 9.9 WNW 6 8 1033.6 - 4.0 - Cloudy 10 - - - -
28/05:00pm 10.3 WNW 6 9 1033.4 - 4.0 - Partly cloudy 10 - - - -
28/04:30pm 10.9 W 3 5 1033.4 - 4.0 - Partly cloudy 10 - - - -
28/04:00pm 10.8 W 6 8 1033.4 - 4.0 - Partly cloudy 10 - - - -
28/03:30pm 10.9 SW 8 11 1033.5 - 4.0 - Partly cloudy 10 - - - -
28/03:00pm 11.8 W 8 11 1033.5 - 4.0 - Partly cloudy 10 - - - -
28/02:30pm 10.7 W 9 12 1033.5 - 4.0 Recent precip. Mostly cloudy 10 - - - -
28/02:00pm 10.9 W 8 11 1033.4 - 4.0 - Partly cloudy 10 - - - -
28/01:59pm 10.8 W 8 11 1033.4 - 4.0 - Partly cloudy 10 - - - -
28/01:30pm 11.2 WNW 9 14 1033.6 - 3.2 - Partly cloudy 6 - - - -
28/01:01pm 10.2 WNW 9 13 1033.9 - 2.8 - Partly cloudy 10 - - - -
28/01:00pm 10.3 W 9 13 1034.0 - 2.8 - Partly cloudy 10 - - - -
28/12:47pm 9.7 W 15 20 1034.1 - 2.8 - Partly cloudy 6 - - - -
28/12:30pm 10.9 WNW 9 12 1034.3 - 2.6 - Partly cloudy 10 - - - -
28/12:02pm 10.5 W 10 14 1034.6 - 2.6 - Partly cloudy 10 - - - -
28/12:00pm 10.3 W 9 14 1034.6 - 2.6 - Partly cloudy 10 - - - -
28/11:59am 10.5 W 9 13 1034.6 - 2.6 - Partly cloudy 10 - - - -
28/11:40am 10.0 W 11 16 1035.1 - 2.6 - Partly cloudy 4 - - - -
28/11:36am 10.4 WNW 10 12 1035.1 - 2.6 - Partly cloudy 6 - - - -
28/11:30am 10.6 NW 10 12 1035.1 - 2.0 Recent precip. Cloudy 10 - - - -
28/11:00am 9.7 NW 10 13 1035.4 - 1.8 - Partly cloudy 10 - - - -
28/10:30am 9.6 NW 8 10 1035.7 - 1.8 - Partly cloudy 10 - - - -
28/10:27am 9.6 NW 8 10 1035.7 - 1.8 - Partly cloudy 10 - - - -
28/10:03am 9.5 NW 8 11 1035.5 - 1.6 - Partly cloudy 6 - - - -
28/10:00am 9.5 NW 8 11 1035.4 - 1.6 - Partly cloudy 10 - - - -
28/09:30am 8.9 NNW 5 7 1035.3 - 1.6 - Cloudy 10 - - - -
28/09:27am 8.6 N 5 7 1035.3 - 1.6 - Cloudy 10 - - - -
28/09:00am 8.0 NNW 7 9 1035.2 - 0.8 - Partly cloudy 4 - - - -
28/08:50am 7.9 NNW 7 9 1035.3 - 0.4 - Partly cloudy 5 - - - -
28/08:49am 7.9 NNW 7 9 1035.2 - 0.4 - Partly cloudy 6 - - - -
28/08:30am 7.9 N 7 10 1035.1 - 2.4 Recent precip. Cloudy 10 - - - -
28/08:05am 8.2 NW 6 9 1035.0 - 2.4 - Partly cloudy 10 - - - -
28/08:00am 8.1 NW 7 9 1035.0 - 2.4 - Partly cloudy 10 - - - -
28/07:52am 8.2 NW 8 11 1034.9 - 2.4 - Partly cloudy 5 - - - -
28/07:32am 6.9 N 5 7 1035.0 - 2.2 - Partly cloudy 6 - - - -
28/07:30am 6.8 N 5 6 1035.0 - 2.2 - Partly cloudy 8 - - - -
28/07:19am 6.8 N 6 8 1034.9 - 2.2 - Partly cloudy 10 - - - -
28/07:00am 6.8 NNW 6 7 1034.6 - 2.2 - Partly cloudy 10 - - - -
28/06:48am 7.7 NW 7 10 1034.5 - 2.2 - Partly cloudy 10 - - - -
28/06:32am 7.8 WNW 6 9 1034.4 - 2.2 - Partly cloudy 9 - - - -
28/06:30am 7.6 WNW 6 9 1034.4 - 2.2 - Partly cloudy 9 - - - -
28/06:00am 6.3 NNW 5 7 1033.9 - 1.8 - Partly cloudy 10 - - - -
28/05:30am 7.1 NW 7 8 1033.5 - 1.8 Recent precip. Mostly cloudy 10 - - - -
28/05:00am 7.3 NW 5 7 1033.3 - 1.4 - Partly cloudy 10 - - - -
28/04:30am 8.2 WNW 8 12 1033.2 - 1.4 - Partly cloudy 10 - - - -
28/04:00am 7.8 NW 7 9 1033.1 - 1.2 - Partly cloudy 10 - - - -
28/03:30am 8.7 WNW 8 10 1033.1 - 1.2 - Partly cloudy 10 - - - -
28/03:00am 8.6 NW 8 10 1033.2 - 1.2 - Partly cloudy 10 - - - -
28/02:30am 9.4 W 8 9 1033.4 - 1.2 - Mostly cloudy 10 - - - -
28/02:00am 9.4 W 7 10 1033.4 - 1.2 - Partly cloudy 10 - - - -
28/01:30am 9.1 W 7 9 1033.2 - 1.2 - Partly cloudy 10 - - - -
28/01:00am 8.8 W 9 11 1032.8 - 1.2 - Partly cloudy 10 - - - -
28/12:30am 8.9 W 9 11 1032.8 - 1.2 - Partly cloudy 10 - - - -
28/12:00am 9.1 W 11 13 1032.7 - 1.2 - Partly cloudy 10 - - - -
 
Date/Time
CST
Temp

°C
Wind Pressure Rain
since 9am
mm
Weather Cloud Vis
km
Sea
Height
m
Swell
Dir
 
Speed
knots
Gust
knots
hPa Trend Height
m
Period
s
Dir
27/11:30pm 8.5 WSW 9 11 1032.7 - 1.2 Recent precip. Mostly cloudy 10 - - - -
27/11:00pm 8.8 WSW 9 11 1032.6 - 1.2 - Partly cloudy 10 - - - -
27/10:42pm 9.7 WSW 12 18 1032.7 - 1.0 - Partly cloudy 6 - - - -
27/10:30pm 9.5 WSW 10 13 1032.6 - 0.8 - Partly cloudy 10 - - - -
27/10:00pm 9.9 WSW 9 11 1032.7 - 0.4 - Partly cloudy 10 - - - -
27/09:30pm 9.7 WSW 11 14 1032.7 - 0.4 - Partly cloudy 10 - - - -
27/09:00pm 9.7 WSW 10 12 1032.5 - 0.4 - Partly cloudy 10 - - - -
27/08:30pm 9.5 W 11 16 1032.4 - 0.4 - Mostly clear 10 - - - -
27/08:00pm 9.1 WSW 9 13 1032.5 - 0.4 - Partly cloudy 10 - - - -
27/07:30pm 9.7 WSW 12 20 1032.5 - 0.4 - Partly cloudy 10 - - - -
27/07:00pm 9.7 WSW 12 17 1032.4 - 0.4 - Partly cloudy 10 - - - -
27/06:30pm 10.1 W 12 16 1032.0 - 0.4 - Partly cloudy 10 - - - -
27/06:00pm 10.2 WSW 12 17 1031.9 - 0.4 - Partly cloudy 10 - - - -
27/05:30pm 10.1 W 13 18 1031.6 - 0.4 - Cloudy 10 - - - -
27/05:00pm 10.1 WSW 11 16 1031.3 - 0.4 - Partly cloudy 10 - - - -
27/04:30pm 10.4 W 13 18 1031.1 - 0.4 - Partly cloudy 10 - - - -
27/04:00pm 10.7 W 13 17 1030.9 - 0.4 - Partly cloudy 10 - - - -
27/03:30pm 11.1 W 13 19 1030.8 - 0.4 - Partly cloudy 10 - - - -
27/03:00pm 10.5 WSW 15 20 1030.7 - 0.4 - Partly cloudy 10 - - - -
27/02:30pm 11.9 W 14 20 1030.3 - 0.4 - Partly cloudy 10 - - - -
27/02:00pm 10.7 W 14 20 1030.1 - 0.4 - Partly cloudy 10 - - - -
27/01:30pm 11.6 WSW 15 20 1030.0 - 0.4 - Partly cloudy 10 - - - -
27/01:00pm 11.8 W 14 20 1029.9 - 0.4 - Partly cloudy 10 - - - -
27/12:30pm 11.1 WSW 12 15 1030.0 - 0.4 - Partly cloudy 10 - - - -
27/12:00pm 11.3 W 13 18 1030.2 - 0.4 - Partly cloudy 10 - - - -
27/11:30am 9.9 WSW 11 15 1030.4 - 0.4 - Mostly cloudy 10 - - - -
27/11:00am 10.7 W 13 18 1030.7 - 0.4 - Partly cloudy 10 - - - -
27/10:30am 10.3 WSW 13 19 1030.6 - 0.4 - Partly cloudy 10 - - - -
27/10:00am 9.8 SW 9 13 1030.4 - 0.4 - Partly cloudy 10 - - - -
27/09:30am 8.8 WSW 8 11 1030.1 - 0.4 - Partly cloudy 10 - - - -
27/09:15am 8.6 WSW 12 16 1029.9 - 0.4 - Partly cloudy 7 - - - -
27/09:00am 8.5 SW 11 16 1029.9 - 0.2 - Partly cloudy 6 - - - -
27/08:59am 8.6 WSW 10 16 1029.9 - 0.2 - Partly cloudy 6 - - - -
27/08:30am 9.0 WSW 15 20 1029.4 - 4.2 - Cloudy 10 - - - -
27/08:00am 9.1 WSW 12 19 1028.7 - 4.2 - Partly cloudy 10 - - - -
27/07:30am 8.6 WSW 12 17 1028.5 - 4.2 - Partly cloudy 10 - - - -

Other Formats:

Comma delimited format used in spreadsheet applications
http://www.bom.gov.au/fwo/IDS60701/IDS60701.94828.axf

JavaScript Object Notation format (JSON) in row-major order
http://www.bom.gov.au/fwo/IDS60701/IDS60701.94828.json